sensor_id;sensor_type;location;lat;lon;timestamp;temperature;humidity
9375;DHT22;4727;51.202;6.344;2023-06-22T00:00:54;22.60;99.90
9375;DHT22;4727;51.202;6.344;2023-06-22T00:03:22;22.50;99.90
9375;DHT22;4727;51.202;6.344;2023-06-22T00:05:48;22.50;99.90
9375;DHT22;4727;51.202;6.344;2023-06-22T00:08:14;22.50;99.90
9375;DHT22;4727;51.202;6.344;2023-06-22T00:10:40;22.40;99.90
9375;DHT22;4727;51.202;6.344;2023-06-22T00:13:07;22.30;99.90
9375;DHT22;4727;51.202;6.344;2023-06-22T00:15:33;22.40;99.90
9375;DHT22;4727;51.202;6.344;2023-06-22T00:17:59;22.30;99.90
9375;DHT22;4727;51.202;6.344;2023-06-22T00:20:28;22.20;99.90
9375;DHT22;4727;51.202;6.344;2023-06-22T00:22:55;22.20;99.90
9375;DHT22;4727;51.202;6.344;2023-06-22T00:25:21;22.10;99.90
9375;DHT22;4727;51.202;6.344;2023-06-22T00:27:47;22.10;99.90
9375;DHT22;4727;51.202;6.344;2023-06-22T00:30:13;22.10;99.90
9375;DHT22;4727;51.202;6.344;2023-06-22T00:32:38;22.10;99.90
9375;DHT22;4727;51.202;6.344;2023-06-22T00:35:04;22.10;99.90
9375;DHT22;4727;51.202;6.344;2023-06-22T00:37:30;22.10;99.90
9375;DHT22;4727;51.202;6.344;2023-06-22T00:39:56;22.00;99.90
9375;DHT22;4727;51.202;6.344;2023-06-22T00:42:22;22.10;99.90
9375;DHT22;4727;51.202;6.344;2023-06-22T00:44:48;22.00;99.90
9375;DHT22;4727;51.202;6.344;2023-06-22T00:47:15;22.00;99.90
9375;DHT22;4727;51.202;6.344;2023-06-22T00:49:42;22.00;99.90
9375;DHT22;4727;51.202;6.344;2023-06-22T00:52:09;22.00;99.90
9375;DHT22;4727;51.202;6.344;2023-06-22T00:54:40;22.00;99.90
9375;DHT22;4727;51.202;6.344;2023-06-22T00:57:13;22.00;99.90
9375;DHT22;4727;51.202;6.344;2023-06-22T00:59:45;22.00;99.90
9375;DHT22;4727;51.202;6.344;2023-06-22T01:02:13;21.90;99.90
9375;DHT22;4727;51.202;6.344;2023-06-22T01:04:39;21.90;99.90
9375;DHT22;4727;51.202;6.344;2023-06-22T01:10:43;21.90;99.90
9375;DHT22;4727;51.202;6.344;2023-06-22T01:18:23;21.80;99.90
9375;DHT22;4727;51.202;6.344;2023-06-22T01:20:54;21.80;99.90
9375;DHT22;4727;51.202;6.344;2023-06-22T01:23:24;21.80;99.90
9375;DHT22;4727;51.202;6.344;2023-06-22T01:28:53;21.70;99.90
9375;DHT22;4727;51.202;6.344;2023-06-22T01:31:20;21.70;99.90
9375;DHT22;4727;51.202;6.344;2023-06-22T01:33:57;21.70;99.90
9375;DHT22;4727;51.202;6.344;2023-06-22T01:36:24;21.60;99.90
9375;DHT22;4727;51.202;6.344;2023-06-22T01:38:52;21.60;99.90
9375;DHT22;4727;51.202;6.344;2023-06-22T01:41:19;21.60;99.90
9375;DHT22;4727;51.202;6.344;2023-06-22T01:43:46;21.70;99.90
9375;DHT22;4727;51.202;6.344;2023-06-22T01:46:12;21.60;99.90
9375;DHT22;4727;51.202;6.344;2023-06-22T01:48:39;21.60;99.90
9375;DHT22;4727;51.202;6.344;2023-06-22T01:51:05;21.60;99.90
9375;DHT22;4727;51.202;6.344;2023-06-22T01:53:31;21.70;99.90
9375;DHT22;4727;51.202;6.344;2023-06-22T01:55:57;21.70;99.90
9375;DHT22;4727;51.202;6.344;2023-06-22T01:58:26;21.50;99.90
9375;DHT22;4727;51.202;6.344;2023-06-22T02:00:59;21.60;99.90
9375;DHT22;4727;51.202;6.344;2023-06-22T02:03:35;21.50;99.90
9375;DHT22;4727;51.202;6.344;2023-06-22T02:06:05;21.40;99.90
9375;DHT22;4727;51.202;6.344;2023-06-22T02:08:38;21.40;99.90
9375;DHT22;4727;51.202;6.344;2023-06-22T02:11:06;21.40;99.90
9375;DHT22;4727;51.202;6.344;2023-06-22T02:13:33;21.40;99.90
9375;DHT22;4727;51.202;6.344;2023-06-22T02:16:00;21.40;99.90
9375;DHT22;4727;51.202;6.344;2023-06-22T02:18:25;21.40;99.90
9375;DHT22;4727;51.202;6.344;2023-06-22T02:20:51;21.40;99.90
9375;DHT22;4727;51.202;6.344;2023-06-22T02:23:17;21.40;99.90
9375;DHT22;4727;51.202;6.344;2023-06-22T02:25:43;21.40;99.90
9375;DHT22;4727;51.202;6.344;2023-06-22T02:28:10;21.30;99.90
9375;DHT22;4727;51.202;6.344;2023-06-22T02:30:35;21.30;99.90
9375;DHT22;4727;51.202;6.344;2023-06-22T02:33:01;21.50;99.90
9375;DHT22;4727;51.202;6.344;2023-06-22T02:35:30;21.30;99.90
9375;DHT22;4727;51.202;6.344;2023-06-22T02:38:02;21.30;99.90
9375;DHT22;4727;51.202;6.344;2023-06-22T02:40:31;21.30;99.90
9375;DHT22;4727;51.202;6.344;2023-06-22T02:42:58;21.30;99.90
9375;DHT22;4727;51.202;6.344;2023-06-22T02:45:27;21.30;99.90
9375;DHT22;4727;51.202;6.344;2023-06-22T02:47:52;21.30;99.90
9375;DHT22;4727;51.202;6.344;2023-06-22T02:50:18;21.30;99.90
9375;DHT22;4727;51.202;6.344;2023-06-22T02:52:43;21.30;99.90
9375;DHT22;4727;51.202;6.344;2023-06-22T02:55:09;21.30;99.90
9375;DHT22;4727;51.202;6.344;2023-06-22T02:57:35;21.30;99.90
9375;DHT22;4727;51.202;6.344;2023-06-22T03:00:03;21.20;99.90
9375;DHT22;4727;51.202;6.344;2023-06-22T03:02:30;21.20;99.90
9375;DHT22;4727;51.202;6.344;2023-06-22T03:04:55;21.20;99.90
9375;DHT22;4727;51.202;6.344;2023-06-22T03:07:21;21.20;99.90
9375;DHT22;4727;51.202;6.344;2023-06-22T03:09:46;21.10;99.90
9375;DHT22;4727;51.202;6.344;2023-06-22T03:12:12;21.10;99.90
9375;DHT22;4727;51.202;6.344;2023-06-22T03:14:38;21.10;99.90
9375;DHT22;4727;51.202;6.344;2023-06-22T03:17:04;21.10;99.90
9375;DHT22;4727;51.202;6.344;2023-06-22T03:19:30;21.00;99.90
9375;DHT22;4727;51.202;6.344;2023-06-22T03:21:59;21.00;99.90
9375;DHT22;4727;51.202;6.344;2023-06-22T03:24:24;21.00;99.90
9375;DHT22;4727;51.202;6.344;2023-06-22T03:26:50;21.00;99.90
9375;DHT22;4727;51.202;6.344;2023-06-22T03:29:15;21.00;99.90
9375;DHT22;4727;51.202;6.344;2023-06-22T03:31:41;21.00;99.90
9375;DHT22;4727;51.202;6.344;2023-06-22T03:34:07;21.00;99.90
9375;DHT22;4727;51.202;6.344;2023-06-22T03:36:32;21.00;99.90
9375;DHT22;4727;51.202;6.344;2023-06-22T03:38:58;20.90;99.90
9375;DHT22;4727;51.202;6.344;2023-06-22T03:41:23;20.90;99.90
9375;DHT22;4727;51.202;6.344;2023-06-22T03:43:49;20.90;99.90
9375;DHT22;4727;51.202;6.344;2023-06-22T03:46:15;20.90;99.90
9375;DHT22;4727;51.202;6.344;2023-06-22T03:48:40;20.90;99.90
9375;DHT22;4727;51.202;6.344;2023-06-22T03:51:06;20.90;99.90
9375;DHT22;4727;51.202;6.344;2023-06-22T03:53:32;21.00;99.90
9375;DHT22;4727;51.202;6.344;2023-06-22T03:55:57;21.00;99.90
9375;DHT22;4727;51.202;6.344;2023-06-22T03:58:23;21.00;99.90
9375;DHT22;4727;51.202;6.344;2023-06-22T04:00:52;21.00;99.90
9375;DHT22;4727;51.202;6.344;2023-06-22T04:03:19;21.00;99.90
9375;DHT22;4727;51.202;6.344;2023-06-22T04:05:45;21.00;99.90
9375;DHT22;4727;51.202;6.344;2023-06-22T04:08:11;21.00;99.90
9375;DHT22;4727;51.202;6.344;2023-06-22T04:10:37;21.00;99.90
9375;DHT22;4727;51.202;6.344;2023-06-22T04:13:03;21.00;99.90
9375;DHT22;4727;51.202;6.344;2023-06-22T04:15:28;21.00;99.90
9375;DHT22;4727;51.202;6.344;2023-06-22T04:17:55;21.00;99.90
9375;DHT22;4727;51.202;6.344;2023-06-22T04:20:20;21.00;99.90
9375;DHT22;4727;51.202;6.344;2023-06-22T04:22:46;21.00;99.90
9375;DHT22;4727;51.202;6.344;2023-06-22T04:25:11;21.00;99.90
9375;DHT22;4727;51.202;6.344;2023-06-22T04:27:37;20.90;99.90
9375;DHT22;4727;51.202;6.344;2023-06-22T04:30:06;21.00;99.90
9375;DHT22;4727;51.202;6.344;2023-06-22T04:32:35;21.00;99.90
9375;DHT22;4727;51.202;6.344;2023-06-22T04:35:05;21.00;99.90
9375;DHT22;4727;51.202;6.344;2023-06-22T04:37:32;20.90;99.90
9375;DHT22;4727;51.202;6.344;2023-06-22T04:39:57;21.00;99.90
9375;DHT22;4727;51.202;6.344;2023-06-22T04:42:28;20.90;99.90
9375;DHT22;4727;51.202;6.344;2023-06-22T04:44:54;20.90;99.90
9375;DHT22;4727;51.202;6.344;2023-06-22T04:47:19;20.80;99.90
9375;DHT22;4727;51.202;6.344;2023-06-22T04:49:45;20.90;99.90
9375;DHT22;4727;51.202;6.344;2023-06-22T04:52:13;20.90;99.90
9375;DHT22;4727;51.202;6.344;2023-06-22T04:54:40;20.90;99.90
9375;DHT22;4727;51.202;6.344;2023-06-22T04:57:13;20.90;99.90
9375;DHT22;4727;51.202;6.344;2023-06-22T04:59:40;20.90;99.90
9375;DHT22;4727;51.202;6.344;2023-06-22T05:02:07;20.90;99.90
9375;DHT22;4727;51.202;6.344;2023-06-22T05:04:33;20.90;99.90
9375;DHT22;4727;51.202;6.344;2023-06-22T05:07:01;20.90;99.90
9375;DHT22;4727;51.202;6.344;2023-06-22T05:09:27;20.80;99.90
9375;DHT22;4727;51.202;6.344;2023-06-22T05:11:53;20.80;99.90
9375;DHT22;4727;51.202;6.344;2023-06-22T05:14:19;20.70;99.90
9375;DHT22;4727;51.202;6.344;2023-06-22T05:16:45;20.70;99.90
9375;DHT22;4727;51.202;6.344;2023-06-22T05:19:11;20.70;99.90
9375;DHT22;4727;51.202;6.344;2023-06-22T05:21:37;20.70;99.90
9375;DHT22;4727;51.202;6.344;2023-06-22T05:24:02;20.70;99.90
9375;DHT22;4727;51.202;6.344;2023-06-22T05:26:30;20.70;99.90
9375;DHT22;4727;51.202;6.344;2023-06-22T05:28:56;20.70;99.90
9375;DHT22;4727;51.202;6.344;2023-06-22T05:31:22;20.80;99.90
9375;DHT22;4727;51.202;6.344;2023-06-22T05:33:50;20.80;99.90
9375;DHT22;4727;51.202;6.344;2023-06-22T05:36:16;20.80;99.90
9375;DHT22;4727;51.202;6.344;2023-06-22T05:38:42;20.90;99.90
9375;DHT22;4727;51.202;6.344;2023-06-22T05:41:08;20.90;99.90
9375;DHT22;4727;51.202;6.344;2023-06-22T05:43:34;20.90;99.90
9375;DHT22;4727;51.202;6.344;2023-06-22T05:46:01;20.80;99.90
9375;DHT22;4727;51.202;6.344;2023-06-22T05:48:27;20.80;99.90
9375;DHT22;4727;51.202;6.344;2023-06-22T05:50:53;20.80;99.90
9375;DHT22;4727;51.202;6.344;2023-06-22T05:53:18;20.80;99.90
9375;DHT22;4727;51.202;6.344;2023-06-22T05:55:44;20.70;99.90
9375;DHT22;4727;51.202;6.344;2023-06-22T05:58:10;20.70;99.90
9375;DHT22;4727;51.202;6.344;2023-06-22T06:00:36;20.70;99.90
9375;DHT22;4727;51.202;6.344;2023-06-22T06:03:02;20.70;99.90
9375;DHT22;4727;51.202;6.344;2023-06-22T06:05:33;20.70;99.90
9375;DHT22;4727;51.202;6.344;2023-06-22T06:08:00;20.80;99.90
9375;DHT22;4727;51.202;6.344;2023-06-22T06:10:27;20.70;99.90
9375;DHT22;4727;51.202;6.344;2023-06-22T06:12:55;20.70;99.90
9375;DHT22;4727;51.202;6.344;2023-06-22T06:15:20;20.70;99.90
9375;DHT22;4727;51.202;6.344;2023-06-22T06:17:52;20.70;99.90
9375;DHT22;4727;51.202;6.344;2023-06-22T06:20:19;20.70;99.90
9375;DHT22;4727;51.202;6.344;2023-06-22T06:22:45;20.70;99.90
9375;DHT22;4727;51.202;6.344;2023-06-22T06:25:10;20.70;99.90
9375;DHT22;4727;51.202;6.344;2023-06-22T06:27:44;20.70;99.90
9375;DHT22;4727;51.202;6.344;2023-06-22T06:30:11;20.80;99.90
9375;DHT22;4727;51.202;6.344;2023-06-22T06:32:37;20.80;99.90
9375;DHT22;4727;51.202;6.344;2023-06-22T06:35:05;20.80;99.90
9375;DHT22;4727;51.202;6.344;2023-06-22T06:37:31;20.80;99.90
9375;DHT22;4727;51.202;6.344;2023-06-22T06:39:56;20.90;99.90
9375;DHT22;4727;51.202;6.344;2023-06-22T06:42:22;20.90;99.90
9375;DHT22;4727;51.202;6.344;2023-06-22T06:44:49;20.90;99.90
9375;DHT22;4727;51.202;6.344;2023-06-22T06:47:15;20.90;99.90
9375;DHT22;4727;51.202;6.344;2023-06-22T06:49:42;21.00;99.90
9375;DHT22;4727;51.202;6.344;2023-06-22T06:52:08;21.00;99.90
9375;DHT22;4727;51.202;6.344;2023-06-22T06:54:33;21.00;99.90
9375;DHT22;4727;51.202;6.344;2023-06-22T06:56:59;21.10;99.90
9375;DHT22;4727;51.202;6.344;2023-06-22T06:59:24;21.30;99.90
9375;DHT22;4727;51.202;6.344;2023-06-22T07:01:51;21.10;99.90
9375;DHT22;4727;51.202;6.344;2023-06-22T07:04:16;21.20;99.90
9375;DHT22;4727;51.202;6.344;2023-06-22T07:06:42;21.20;99.90
9375;DHT22;4727;51.202;6.344;2023-06-22T07:09:08;21.20;99.90
9375;DHT22;4727;51.202;6.344;2023-06-22T07:11:33;21.20;99.90
9375;DHT22;4727;51.202;6.344;2023-06-22T07:14:00;21.20;99.90
9375;DHT22;4727;51.202;6.344;2023-06-22T07:16:26;21.20;99.90
9375;DHT22;4727;51.202;6.344;2023-06-22T07:18:53;21.10;99.90
9375;DHT22;4727;51.202;6.344;2023-06-22T07:21:18;21.10;99.90
9375;DHT22;4727;51.202;6.344;2023-06-22T07:23:44;21.10;99.90
9375;DHT22;4727;51.202;6.344;2023-06-22T07:26:10;21.00;99.90
9375;DHT22;4727;51.202;6.344;2023-06-22T07:28:38;20.90;99.90
9375;DHT22;4727;51.202;6.344;2023-06-22T07:31:06;21.00;99.90
9375;DHT22;4727;51.202;6.344;2023-06-22T07:33:31;20.90;99.90
9375;DHT22;4727;51.202;6.344;2023-06-22T07:35:57;21.00;99.90
9375;DHT22;4727;51.202;6.344;2023-06-22T07:38:22;20.90;99.90
9375;DHT22;4727;51.202;6.344;2023-06-22T07:40:48;21.00;99.90
9375;DHT22;4727;51.202;6.344;2023-06-22T07:43:14;21.00;99.90
9375;DHT22;4727;51.202;6.344;2023-06-22T07:45:39;21.00;99.90
9375;DHT22;4727;51.202;6.344;2023-06-22T07:48:07;21.10;99.90
9375;DHT22;4727;51.202;6.344;2023-06-22T07:50:32;21.10;99.90
9375;DHT22;4727;51.202;6.344;2023-06-22T07:52:58;21.20;99.90
9375;DHT22;4727;51.202;6.344;2023-06-22T07:55:24;21.20;99.90
9375;DHT22;4727;51.202;6.344;2023-06-22T07:57:50;21.30;99.90
9375;DHT22;4727;51.202;6.344;2023-06-22T08:00:17;21.40;99.90
9375;DHT22;4727;51.202;6.344;2023-06-22T08:02:45;21.40;99.90
9375;DHT22;4727;51.202;6.344;2023-06-22T08:05:11;21.50;99.90
9375;DHT22;4727;51.202;6.344;2023-06-22T08:07:37;21.60;99.90
9375;DHT22;4727;51.202;6.344;2023-06-22T08:10:05;21.70;99.90
9375;DHT22;4727;51.202;6.344;2023-06-22T08:12:31;21.80;99.90
9375;DHT22;4727;51.202;6.344;2023-06-22T08:14:57;21.90;99.90
9375;DHT22;4727;51.202;6.344;2023-06-22T08:17:24;21.90;99.90
9375;DHT22;4727;51.202;6.344;2023-06-22T08:19:49;22.00;99.90
9375;DHT22;4727;51.202;6.344;2023-06-22T08:22:16;22.10;99.90
9375;DHT22;4727;51.202;6.344;2023-06-22T08:24:42;22.20;99.90
9375;DHT22;4727;51.202;6.344;2023-06-22T08:27:09;22.30;99.90
9375;DHT22;4727;51.202;6.344;2023-06-22T08:29:35;22.40;99.90
9375;DHT22;4727;51.202;6.344;2023-06-22T08:32:01;22.40;99.90
9375;DHT22;4727;51.202;6.344;2023-06-22T08:34:26;22.40;99.90
9375;DHT22;4727;51.202;6.344;2023-06-22T08:36:53;22.60;99.90
9375;DHT22;4727;51.202;6.344;2023-06-22T08:39:21;22.60;99.90
9375;DHT22;4727;51.202;6.344;2023-06-22T08:41:48;22.50;99.90
9375;DHT22;4727;51.202;6.344;2023-06-22T08:44:15;22.60;99.90
9375;DHT22;4727;51.202;6.344;2023-06-22T08:46:40;22.70;99.90
9375;DHT22;4727;51.202;6.344;2023-06-22T08:49:07;22.70;99.90
9375;DHT22;4727;51.202;6.344;2023-06-22T08:51:33;22.70;99.90
9375;DHT22;4727;51.202;6.344;2023-06-22T08:53:58;22.80;99.90
9375;DHT22;4727;51.202;6.344;2023-06-22T08:56:24;22.80;99.90
9375;DHT22;4727;51.202;6.344;2023-06-22T08:58:50;22.90;99.90
9375;DHT22;4727;51.202;6.344;2023-06-22T09:01:15;23.00;99.90
9375;DHT22;4727;51.202;6.344;2023-06-22T09:03:41;23.00;99.90
9375;DHT22;4727;51.202;6.344;2023-06-22T09:06:07;23.10;99.90
9375;DHT22;4727;51.202;6.344;2023-06-22T09:08:35;23.20;99.90
9375;DHT22;4727;51.202;6.344;2023-06-22T09:11:01;23.40;99.90
9375;DHT22;4727;51.202;6.344;2023-06-22T09:13:27;23.50;99.90
9375;DHT22;4727;51.202;6.344;2023-06-22T09:15:53;23.50;99.90
9375;DHT22;4727;51.202;6.344;2023-06-22T09:18:18;23.60;99.90
9375;DHT22;4727;51.202;6.344;2023-06-22T09:20:45;23.60;99.90
9375;DHT22;4727;51.202;6.344;2023-06-22T09:23:10;23.70;99.90
9375;DHT22;4727;51.202;6.344;2023-06-22T09:25:36;23.80;99.90
9375;DHT22;4727;51.202;6.344;2023-06-22T09:28:02;23.80;99.90
9375;DHT22;4727;51.202;6.344;2023-06-22T09:30:27;23.90;99.90
9375;DHT22;4727;51.202;6.344;2023-06-22T09:32:53;24.00;99.90
9375;DHT22;4727;51.202;6.344;2023-06-22T09:35:20;24.10;99.90
9375;DHT22;4727;51.202;6.344;2023-06-22T09:37:46;24.20;99.90
9375;DHT22;4727;51.202;6.344;2023-06-22T09:40:12;24.30;99.90
9375;DHT22;4727;51.202;6.344;2023-06-22T09:42:39;24.40;99.90
9375;DHT22;4727;51.202;6.344;2023-06-22T09:45:05;24.60;99.90
9375;DHT22;4727;51.202;6.344;2023-06-22T09:47:31;24.60;99.90
9375;DHT22;4727;51.202;6.344;2023-06-22T09:49:56;24.60;99.90
9375;DHT22;4727;51.202;6.344;2023-06-22T09:52:24;24.60;99.90
9375;DHT22;4727;51.202;6.344;2023-06-22T09:54:50;24.80;99.90
9375;DHT22;4727;51.202;6.344;2023-06-22T09:57:15;24.80;99.90
9375;DHT22;4727;51.202;6.344;2023-06-22T09:59:41;25.00;99.90
9375;DHT22;4727;51.202;6.344;2023-06-22T10:02:07;25.00;99.90
9375;DHT22;4727;51.202;6.344;2023-06-22T10:04:33;25.00;99.90
9375;DHT22;4727;51.202;6.344;2023-06-22T10:06:59;25.00;99.90
9375;DHT22;4727;51.202;6.344;2023-06-22T10:09:25;25.10;99.90
9375;DHT22;4727;51.202;6.344;2023-06-22T10:11:51;25.10;99.90
9375;DHT22;4727;51.202;6.344;2023-06-22T10:14:16;25.10;99.90
9375;DHT22;4727;51.202;6.344;2023-06-22T10:16:42;25.10;99.90
9375;DHT22;4727;51.202;6.344;2023-06-22T10:19:07;25.20;99.90
9375;DHT22;4727;51.202;6.344;2023-06-22T10:21:33;25.10;99.90
9375;DHT22;4727;51.202;6.344;2023-06-22T10:24:00;25.10;99.90
9375;DHT22;4727;51.202;6.344;2023-06-22T10:26:32;25.10;99.90
9375;DHT22;4727;51.202;6.344;2023-06-22T10:28:57;25.10;99.90
9375;DHT22;4727;51.202;6.344;2023-06-22T10:31:23;25.00;99.90
9375;DHT22;4727;51.202;6.344;2023-06-22T10:33:48;24.90;99.90
9375;DHT22;4727;51.202;6.344;2023-06-22T10:36:15;24.80;99.90
9375;DHT22;4727;51.202;6.344;2023-06-22T10:38:40;24.80;99.90
9375;DHT22;4727;51.202;6.344;2023-06-22T10:41:06;24.70;99.90
9375;DHT22;4727;51.202;6.344;2023-06-22T10:43:32;24.60;99.90
9375;DHT22;4727;51.202;6.344;2023-06-22T10:45:58;24.60;99.90
9375;DHT22;4727;51.202;6.344;2023-06-22T10:48:23;24.50;99.90
9375;DHT22;4727;51.202;6.344;2023-06-22T10:50:49;24.40;99.90
9375;DHT22;4727;51.202;6.344;2023-06-22T10:53:14;24.30;99.90
9375;DHT22;4727;51.202;6.344;2023-06-22T10:55:40;24.30;99.90
9375;DHT22;4727;51.202;6.344;2023-06-22T10:58:05;24.10;99.90
9375;DHT22;4727;51.202;6.344;2023-06-22T11:00:31;23.80;99.90
9375;DHT22;4727;51.202;6.344;2023-06-22T11:02:57;23.80;99.90
9375;DHT22;4727;51.202;6.344;2023-06-22T11:05:23;23.80;99.90
9375;DHT22;4727;51.202;6.344;2023-06-22T11:07:49;23.80;99.90
9375;DHT22;4727;51.202;6.344;2023-06-22T11:10:15;23.80;99.90
9375;DHT22;4727;51.202;6.344;2023-06-22T11:12:41;23.80;99.90
9375;DHT22;4727;51.202;6.344;2023-06-22T11:15:08;23.80;99.90
9375;DHT22;4727;51.202;6.344;2023-06-22T11:17:34;23.70;99.90
9375;DHT22;4727;51.202;6.344;2023-06-22T11:20:00;23.50;99.90
9375;DHT22;4727;51.202;6.344;2023-06-22T11:22:26;23.50;99.90
9375;DHT22;4727;51.202;6.344;2023-06-22T11:24:51;23.30;99.90
9375;DHT22;4727;51.202;6.344;2023-06-22T11:27:17;23.20;99.90
9375;DHT22;4727;51.202;6.344;2023-06-22T11:29:42;23.20;99.90
9375;DHT22;4727;51.202;6.344;2023-06-22T11:32:08;23.00;99.90
9375;DHT22;4727;51.202;6.344;2023-06-22T11:34:34;23.00;99.90
9375;DHT22;4727;51.202;6.344;2023-06-22T11:37:00;22.90;99.90
9375;DHT22;4727;51.202;6.344;2023-06-22T11:39:25;22.80;99.90
9375;DHT22;4727;51.202;6.344;2023-06-22T11:41:51;22.80;99.90
9375;DHT22;4727;51.202;6.344;2023-06-22T11:44:17;22.80;99.90
9375;DHT22;4727;51.202;6.344;2023-06-22T11:46:42;22.80;99.90
9375;DHT22;4727;51.202;6.344;2023-06-22T11:49:08;22.70;99.90
9375;DHT22;4727;51.202;6.344;2023-06-22T11:51:33;22.80;99.90
9375;DHT22;4727;51.202;6.344;2023-06-22T11:53:59;22.70;99.90
9375;DHT22;4727;51.202;6.344;2023-06-22T11:56:25;22.70;99.90
9375;DHT22;4727;51.202;6.344;2023-06-22T11:58:50;22.70;99.90
9375;DHT22;4727;51.202;6.344;2023-06-22T12:01:16;22.80;99.90
9375;DHT22;4727;51.202;6.344;2023-06-22T12:03:42;22.80;99.90
9375;DHT22;4727;51.202;6.344;2023-06-22T12:06:09;22.80;99.90
9375;DHT22;4727;51.202;6.344;2023-06-22T12:08:35;22.80;99.90
9375;DHT22;4727;51.202;6.344;2023-06-22T12:11:00;22.90;99.90
9375;DHT22;4727;51.202;6.344;2023-06-22T12:13:26;22.90;99.90
9375;DHT22;4727;51.202;6.344;2023-06-22T12:15:51;23.00;99.90
9375;DHT22;4727;51.202;6.344;2023-06-22T12:18:18;23.00;99.90
9375;DHT22;4727;51.202;6.344;2023-06-22T12:20:46;23.00;99.90
9375;DHT22;4727;51.202;6.344;2023-06-22T12:23:11;23.00;99.90
9375;DHT22;4727;51.202;6.344;2023-06-22T12:25:37;23.20;99.90
9375;DHT22;4727;51.202;6.344;2023-06-22T12:28:03;23.10;99.90
9375;DHT22;4727;51.202;6.344;2023-06-22T12:30:30;23.10;99.90
9375;DHT22;4727;51.202;6.344;2023-06-22T12:32:55;23.10;99.90
9375;DHT22;4727;51.202;6.344;2023-06-22T12:35:21;23.20;99.90
9375;DHT22;4727;51.202;6.344;2023-06-22T12:37:47;23.20;99.90
9375;DHT22;4727;51.202;6.344;2023-06-22T12:40:12;23.20;99.90
9375;DHT22;4727;51.202;6.344;2023-06-22T12:42:38;23.20;99.90
9375;DHT22;4727;51.202;6.344;2023-06-22T12:45:04;23.30;99.90
9375;DHT22;4727;51.202;6.344;2023-06-22T12:47:30;23.30;99.90
9375;DHT22;4727;51.202;6.344;2023-06-22T12:49:56;23.20;99.90
9375;DHT22;4727;51.202;6.344;2023-06-22T12:52:21;23.20;99.90
9375;DHT22;4727;51.202;6.344;2023-06-22T12:54:47;23.20;99.90
9375;DHT22;4727;51.202;6.344;2023-06-22T12:57:13;23.20;99.90
9375;DHT22;4727;51.202;6.344;2023-06-22T12:59:39;23.20;99.90
9375;DHT22;4727;51.202;6.344;2023-06-22T13:02:05;23.20;99.90
9375;DHT22;4727;51.202;6.344;2023-06-22T13:04:31;23.20;99.90
9375;DHT22;4727;51.202;6.344;2023-06-22T13:06:56;23.20;99.90
9375;DHT22;4727;51.202;6.344;2023-06-22T13:09:22;23.20;99.90
9375;DHT22;4727;51.202;6.344;2023-06-22T13:11:47;23.20;99.90
9375;DHT22;4727;51.202;6.344;2023-06-22T13:14:13;23.30;99.90
9375;DHT22;4727;51.202;6.344;2023-06-22T13:16:39;23.30;99.90
9375;DHT22;4727;51.202;6.344;2023-06-22T13:19:05;23.30;99.90
9375;DHT22;4727;51.202;6.344;2023-06-22T13:21:30;23.20;99.90
9375;DHT22;4727;51.202;6.344;2023-06-22T13:23:56;23.20;99.90
9375;DHT22;4727;51.202;6.344;2023-06-22T13:26:22;23.30;99.90
9375;DHT22;4727;51.202;6.344;2023-06-22T13:28:47;23.20;99.90
9375;DHT22;4727;51.202;6.344;2023-06-22T13:31:13;23.20;99.90
9375;DHT22;4727;51.202;6.344;2023-06-22T13:33:39;23.20;99.90
9375;DHT22;4727;51.202;6.344;2023-06-22T13:36:06;23.20;99.90
9375;DHT22;4727;51.202;6.344;2023-06-22T13:38:33;23.20;99.90
9375;DHT22;4727;51.202;6.344;2023-06-22T13:40:59;23.20;99.90
9375;DHT22;4727;51.202;6.344;2023-06-22T13:43:26;23.20;99.90
9375;DHT22;4727;51.202;6.344;2023-06-22T13:45:52;23.20;99.90
9375;DHT22;4727;51.202;6.344;2023-06-22T13:48:18;23.30;99.90
9375;DHT22;4727;51.202;6.344;2023-06-22T13:50:44;23.20;99.90
9375;DHT22;4727;51.202;6.344;2023-06-22T13:53:09;23.10;99.90
9375;DHT22;4727;51.202;6.344;2023-06-22T13:55:35;23.20;99.90
9375;DHT22;4727;51.202;6.344;2023-06-22T13:58:00;23.10;99.90
9375;DHT22;4727;51.202;6.344;2023-06-22T14:00:26;23.00;99.90
9375;DHT22;4727;51.202;6.344;2023-06-22T14:02:53;23.10;99.90
9375;DHT22;4727;51.202;6.344;2023-06-22T14:05:19;23.00;99.90
9375;DHT22;4727;51.202;6.344;2023-06-22T14:07:45;23.00;99.90
9375;DHT22;4727;51.202;6.344;2023-06-22T14:10:10;22.90;99.90
9375;DHT22;4727;51.202;6.344;2023-06-22T14:12:36;22.90;99.90
9375;DHT22;4727;51.202;6.344;2023-06-22T14:15:02;22.80;99.90
9375;DHT22;4727;51.202;6.344;2023-06-22T14:17:28;22.80;99.90
9375;DHT22;4727;51.202;6.344;2023-06-22T14:19:53;22.80;99.90
9375;DHT22;4727;51.202;6.344;2023-06-22T14:22:20;22.80;99.90
9375;DHT22;4727;51.202;6.344;2023-06-22T14:24:46;22.70;99.90
9375;DHT22;4727;51.202;6.344;2023-06-22T14:27:12;22.70;99.90
9375;DHT22;4727;51.202;6.344;2023-06-22T14:29:38;22.70;99.90
9375;DHT22;4727;51.202;6.344;2023-06-22T14:32:03;22.70;99.90
9375;DHT22;4727;51.202;6.344;2023-06-22T14:34:31;22.60;99.90
9375;DHT22;4727;51.202;6.344;2023-06-22T14:36:57;22.60;99.90
9375;DHT22;4727;51.202;6.344;2023-06-22T14:39:22;22.60;99.90
9375;DHT22;4727;51.202;6.344;2023-06-22T14:41:48;22.50;99.90
9375;DHT22;4727;51.202;6.344;2023-06-22T14:44:14;22.50;99.90
9375;DHT22;4727;51.202;6.344;2023-06-22T14:46:40;22.50;99.90
9375;DHT22;4727;51.202;6.344;2023-06-22T14:49:06;22.40;99.90
9375;DHT22;4727;51.202;6.344;2023-06-22T14:51:31;22.40;99.90
9375;DHT22;4727;51.202;6.344;2023-06-22T14:53:57;22.30;99.90
9375;DHT22;4727;51.202;6.344;2023-06-22T14:56:22;22.30;99.90
9375;DHT22;4727;51.202;6.344;2023-06-22T14:58:48;22.40;99.90
9375;DHT22;4727;51.202;6.344;2023-06-22T15:01:17;22.20;99.90
9375;DHT22;4727;51.202;6.344;2023-06-22T15:03:42;22.20;99.90
9375;DHT22;4727;51.202;6.344;2023-06-22T15:06:09;22.20;99.90
9375;DHT22;4727;51.202;6.344;2023-06-22T15:08:37;22.20;99.90
9375;DHT22;4727;51.202;6.344;2023-06-22T15:11:03;22.10;99.90
9375;DHT22;4727;51.202;6.344;2023-06-22T15:13:31;22.10;99.90
9375;DHT22;4727;51.202;6.344;2023-06-22T15:16:03;22.10;99.90
9375;DHT22;4727;51.202;6.344;2023-06-22T15:18:28;22.10;99.90
9375;DHT22;4727;51.202;6.344;2023-06-22T15:20:54;22.00;99.90
9375;DHT22;4727;51.202;6.344;2023-06-22T15:23:20;22.00;99.90
9375;DHT22;4727;51.202;6.344;2023-06-22T15:25:45;21.90;99.90
9375;DHT22;4727;51.202;6.344;2023-06-22T15:28:11;21.90;99.90
9375;DHT22;4727;51.202;6.344;2023-06-22T15:30:37;21.80;99.90
9375;DHT22;4727;51.202;6.344;2023-06-22T15:33:03;21.80;99.90
9375;DHT22;4727;51.202;6.344;2023-06-22T15:35:28;21.70;99.90
9375;DHT22;4727;51.202;6.344;2023-06-22T15:37:54;21.60;99.90
9375;DHT22;4727;51.202;6.344;2023-06-22T15:40:19;21.50;99.90
9375;DHT22;4727;51.202;6.344;2023-06-22T15:42:45;21.40;99.90
9375;DHT22;4727;51.202;6.344;2023-06-22T15:45:12;21.30;99.90
9375;DHT22;4727;51.202;6.344;2023-06-22T15:47:38;21.20;99.90
9375;DHT22;4727;51.202;6.344;2023-06-22T15:50:03;21.10;99.90
9375;DHT22;4727;51.202;6.344;2023-06-22T15:52:29;21.10;99.90
9375;DHT22;4727;51.202;6.344;2023-06-22T15:54:55;21.00;99.90
9375;DHT22;4727;51.202;6.344;2023-06-22T15:57:23;21.00;99.90
9375;DHT22;4727;51.202;6.344;2023-06-22T15:59:50;20.90;99.90
9375;DHT22;4727;51.202;6.344;2023-06-22T16:02:15;20.80;99.90
9375;DHT22;4727;51.202;6.344;2023-06-22T16:04:41;20.70;99.90
9375;DHT22;4727;51.202;6.344;2023-06-22T16:07:06;20.70;99.90